Time;durP1;ratioP1;P1;durP2;ratioP2;P2;SDS_P1;SDS_P2;PMS_P1;PMS_P2;Temp;Humidity;BMP_temperature;BMP_pressure;BME280_temperature;BME280_humidity;BME280_pressure;Samples;Min_cycle;Max_cycle;Signal;HPM_P1;HPM_P2
2023/12/24 00:02:23;;;;;;;0.20;0.20;;;;;;;6.66;92.76;96510.16;5031723;28;20053;-74
2023/12/24 00:04:51;;;;;;;0.32;0.32;;;;;;;6.66;92.40;96506.69;5023331;28;20282;-73
2023/12/24 00:07:18;;;;;;;0.20;0.20;;;;;;;6.64;92.67;96507.72;5029388;28;20074;-73
2023/12/24 00:09:46;;;;;;;0.20;0.20;;;;;;;6.67;92.26;96516.28;5025453;28;20144;-73
2023/12/24 00:12:15;;;;;;;0.22;0.22;;;;;;;6.69;91.82;96516.91;5028429;28;20060;-73
2023/12/24 00:14:43;;;;;;;0.20;0.20;;;;;;;6.72;91.39;96514.72;5030780;28;20116;-73
2023/12/24 00:17:11;;;;;;;0.40;0.40;;;;;;;6.76;90.50;96499.19;5027513;28;20120;-73
2023/12/24 00:19:39;;;;;;;0.30;0.30;;;;;;;6.79;90.06;96491.69;5029856;28;20045;-73
2023/12/24 00:22:07;;;;;;;0.30;0.30;;;;;;;6.81;89.82;96486.19;5026831;28;20045;-73
2023/12/24 00:24:34;;;;;;;0.30;0.30;;;;;;;6.83;89.69;96489.47;5028951;28;20045;-73
2023/12/24 00:27:02;;;;;;;0.30;0.30;;;;;;;6.85;89.47;96495.38;5026075;28;20041;-74
2023/12/24 00:29:31;;;;;;;0.20;0.20;;;;;;;6.83;89.68;96489.47;5010368;28;20140;-72
2023/12/24 00:31:58;;;;;;;0.20;0.20;;;;;;;6.82;89.61;96478.03;5020385;28;20041;-73
2023/12/24 00:34:26;;;;;;;0.10;0.10;;;;;;;6.87;88.54;96490.69;5013246;28;20081;-72
2023/12/24 00:36:53;;;;;;;0.20;0.20;;;;;;;6.95;87.96;96491.34;5014106;28;20045;-73
2023/12/24 00:39:21;;;;;;;0.20;0.20;;;;;;;6.94;88.16;96488.88;5017401;28;20053;-73
2023/12/24 00:41:49;;;;;;;0.43;0.43;;;;;;;6.95;87.79;96494.00;5017066;28;20038;-73
2023/12/24 00:44:16;;;;;;;0.20;0.20;;;;;;;6.94;88.12;96492.34;5016514;28;20489;-73
2023/12/24 00:46:45;;;;;;;0.20;0.20;;;;;;;6.94;87.77;96497.66;5012816;28;20041;-75
2023/12/24 00:49:13;;;;;;;0.30;0.30;;;;;;;7.02;87.62;96503.81;5031088;28;20049;-74
2023/12/24 00:51:42;;;;;;;0.28;0.28;;;;;;;6.97;87.21;96494.59;5007930;28;20505;-73
2023/12/24 00:54:10;;;;;;;0.20;0.20;;;;;;;6.97;86.97;96507.84;5031075;28;20068;-73
2023/12/24 00:56:38;;;;;;;0.30;0.30;;;;;;;6.97;87.30;96507.03;5030572;28;20067;-73
2023/12/24 00:59:05;;;;;;;0.20;0.20;;;;;;;7.01;86.94;96510.94;5027000;28;20045;-73
2023/12/24 01:01:33;;;;;;;0.20;0.20;;;;;;;7.05;86.00;96516.66;5004215;28;20150;-73
2023/12/24 01:04:02;;;;;;;0.20;0.20;;;;;;;7.07;85.99;96510.13;5032564;28;20147;-73
2023/12/24 01:06:30;;;;;;;0.32;0.32;;;;;;;7.11;85.78;96513.22;5017501;28;20041;-73
2023/12/24 01:08:57;;;;;;;0.25;0.25;;;;;;;7.13;85.27;96508.53;5033329;28;20133;-73
2023/12/24 01:11:25;;;;;;;0.30;0.30;;;;;;;7.12;85.29;96504.22;5032527;28;20404;-73
2023/12/24 01:13:52;;;;;;;0.20;0.20;;;;;;;7.08;85.96;96509.13;5036728;28;20045;-74
2023/12/24 01:16:20;;;;;;;0.20;0.20;;;;;;;7.08;85.78;96503.00;5033747;28;20037;-74
2023/12/24 01:18:48;;;;;;;0.30;0.30;;;;;;;7.06;85.72;96508.50;5036071;28;20072;-73
2023/12/24 01:21:17;;;;;;;0.10;0.10;;;;;;;7.06;85.77;96513.78;5029221;28;20033;-73
2023/12/24 01:23:45;;;;;;;0.35;0.35;;;;;;;7.09;85.25;96512.59;5017601;28;20061;-73
2023/12/24 01:26:13;;;;;;;0.40;0.40;;;;;;;7.08;85.54;96498.50;5032187;28;20116;-74
2023/12/24 01:28:41;;;;;;;0.20;0.20;;;;;;;7.11;85.32;96507.91;5016500;28;20067;-72
2023/12/24 01:31:09;;;;;;;0.20;0.20;;;;;;;7.07;85.90;96518.09;5031571;28;20045;-73
2023/12/24 01:33:36;;;;;;;0.25;0.25;;;;;;;7.05;85.87;96520.16;5019123;28;20139;-73
2023/12/24 01:36:04;;;;;;;0.25;0.25;;;;;;;7.06;85.99;96513.00;5018589;28;20095;-73
2023/12/24 01:38:33;;;;;;;0.20;0.20;;;;;;;7.07;86.03;96518.09;5015119;28;20049;-73
2023/12/24 01:41:01;;;;;;;0.30;0.30;;;;;;;7.05;86.15;96514.84;5017720;28;20045;-75
2023/12/24 01:43:29;;;;;;;0.30;0.30;;;;;;;7.00;86.60;96539.28;5014355;28;20044;-73
2023/12/24 01:45:57;;;;;;;0.22;0.22;;;;;;;6.99;86.90;96531.53;5029415;28;20042;-72
2023/12/24 01:48:25;;;;;;;0.20;0.20;;;;;;;6.95;87.44;96531.13;5037008;28;20045;-74
2023/12/24 01:50:53;;;;;;;0.20;0.20;;;;;;;6.93;87.47;96538.47;5033430;28;20116;-73
2023/12/24 01:53:21;;;;;;;0.30;0.30;;;;;;;6.89;87.54;96516.00;5018368;28;20064;-73
2023/12/24 01:55:50;;;;;;;0.20;0.20;;;;;;;6.89;87.32;96531.91;5029089;28;20404;-73
2023/12/24 01:58:18;;;;;;;0.22;0.22;;;;;;;6.88;87.76;96535.56;5012862;28;20132;-76
2023/12/24 02:00:46;;;;;;;0.32;0.32;;;;;;;6.86;88.16;96536.78;5017758;28;20493;-73
2023/12/24 02:03:15;;;;;;;0.10;0.10;;;;;;;6.81;88.36;96524.13;5019433;28;20042;-74
2023/12/24 02:05:45;;;;;;;0.25;0.25;;;;;;;6.86;87.35;96531.47;5013261;28;20056;-73
2023/12/24 02:08:14;;;;;;;0.22;0.22;;;;;;;6.91;87.16;96540.50;5019378;28;20045;-74
2023/12/24 02:10:42;;;;;;;0.20;0.20;;;;;;;6.93;86.19;96535.00;5029945;28;20046;-73
2023/12/24 02:13:12;;;;;;;0.17;0.17;;;;;;;6.92;86.42;96523.56;5018606;28;20059;-73
2023/12/24 02:15:39;;;;;;;0.30;0.30;;;;;;;6.92;87.12;96525.41;5013993;28;20051;-75
2023/12/24 02:18:07;;;;;;;0.20;0.20;;;;;;;6.92;86.68;96533.34;5013663;28;20510;-73
2023/12/24 02:20:35;;;;;;;0.20;0.20;;;;;;;6.86;87.69;96534.13;5032976;28;20129;-73
2023/12/24 02:23:04;;;;;;;0.30;0.30;;;;;;;6.85;87.18;96524.56;5011187;28;20053;-73
2023/12/24 02:25:32;;;;;;;0.38;0.38;;;;;;;6.86;86.76;96528.81;5033360;28;20128;-75
2023/12/24 02:28:03;;;;;;;0.20;0.20;;;;;;;6.83;87.19;96519.44;5009216;28;20497;-73
2023/12/24 02:30:34;;;;;;;0.22;0.22;;;;;;;6.82;87.60;96509.03;5033735;28;20046;-74
2023/12/24 02:33:04;;;;;;;0.30;0.30;;;;;;;6.81;87.24;96520.66;5025867;28;20042;-73
2023/12/24 02:35:33;;;;;;;0.20;0.20;;;;;;;6.82;87.85;96517.81;5032812;28;20041;-74
2023/12/24 02:38:01;;;;;;;0.32;0.32;;;;;;;6.80;87.71;96516.38;5029225;28;20045;-73
2023/12/24 02:40:30;;;;;;;0.20;0.20;;;;;;;6.78;87.57;96519.22;5031743;28;20090;-73
2023/12/24 02:42:58;;;;;;;0.35;0.35;;;;;;;6.82;87.13;96515.16;5000341;28;20083;-73
2023/12/24 02:45:25;;;;;;;0.30;0.30;;;;;;;6.84;87.23;96523.75;5031226;28;20041;-73
2023/12/24 02:47:53;;;;;;;0.40;0.40;;;;;;;6.87;87.33;96528.63;5033254;28;20053;-74
2023/12/24 02:50:21;;;;;;;0.25;0.25;;;;;;;6.80;87.55;96516.38;5012291;28;20049;-76
2023/12/24 02:52:50;;;;;;;0.20;0.20;;;;;;;6.81;87.64;96526.78;5014707;28;20049;-73
2023/12/24 02:55:18;;;;;;;0.30;0.30;;;;;;;6.80;88.04;96530.44;5009021;28;20060;-73
2023/12/24 02:57:48;;;;;;;0.30;0.30;;;;;;;6.79;88.02;96526.16;5008375;28;20033;-74
2023/12/24 03:00:16;;;;;;;0.20;0.20;;;;;;;6.77;88.25;96514.91;5029150;28;20116;-75
2023/12/24 03:02:45;;;;;;;0.20;0.20;;;;;;;6.85;87.68;96521.91;5015144;28;20052;-74
2023/12/24 03:05:13;;;;;;;0.38;0.38;;;;;;;6.81;88.08;96518.00;5031241;28;20042;-73
2023/12/24 03:07:41;;;;;;;0.20;0.20;;;;;;;6.80;87.97;96516.38;5005389;28;20037;-74
2023/12/24 03:10:08;;;;;;;0.30;0.30;;;;;;;6.78;88.55;96508.59;5010014;28;20148;-73
2023/12/24 03:12:36;;;;;;;0.30;0.30;;;;;;;6.85;87.61;96508.66;5001027;28;20054;-73
2023/12/24 03:15:07;;;;;;;0.20;0.20;;;;;;;6.88;87.72;96508.22;5023799;28;20045;-73
2023/12/24 03:17:34;;;;;;;0.32;0.32;;;;;;;6.87;87.69;96515.38;5024973;28;20065;-73
2023/12/24 03:20:03;;;;;;;0.38;0.38;;;;;;;6.87;87.64;96507.41;5024795;28;20049;-75
2023/12/24 03:22:31;;;;;;;0.30;0.30;;;;;;;6.88;87.69;96511.69;5024635;28;20053;-73
2023/12/24 03:24:59;;;;;;;0.22;0.22;;;;;;;6.88;87.74;96506.41;5007369;28;20137;-74
2023/12/24 03:27:27;;;;;;;0.17;0.17;;;;;;;6.91;87.68;96511.31;5023656;28;20045;-74
2023/12/24 03:29:54;;;;;;;0.22;0.22;;;;;;;6.88;87.86;96530.25;5029381;28;20041;-74
2023/12/24 03:32:23;;;;;;;0.30;0.30;;;;;;;6.91;87.53;96513.97;5028388;28;20033;-73
2023/12/24 03:34:51;;;;;;;0.28;0.28;;;;;;;6.89;88.07;96509.88;5014328;28;20041;-73
2023/12/24 03:37:19;;;;;;;0.20;0.20;;;;;;;6.98;87.92;96509.50;5007371;28;20077;-73
2023/12/24 03:39:46;;;;;;;0.20;0.20;;;;;;;6.91;87.73;96486.63;5004603;28;20051;-73
2023/12/24 03:42:14;;;;;;;0.20;0.20;;;;;;;6.89;87.79;96478.03;5022707;28;20531;-73
2023/12/24 03:44:42;;;;;;;0.30;0.30;;;;;;;6.91;87.96;96471.53;5029798;28;20516;-73
2023/12/24 03:47:09;;;;;;;0.22;0.22;;;;;;;6.96;88.21;96484.19;5009720;28;20120;-73
2023/12/24 03:49:38;;;;;;;0.22;0.22;;;;;;;6.89;88.14;96473.56;5028958;28;20053;-74
2023/12/24 03:52:06;;;;;;;0.10;0.10;;;;;;;6.90;88.09;96485.81;5013982;28;20128;-73
2023/12/24 03:54:33;;;;;;;0.30;0.30;;;;;;;6.97;87.68;96486.63;5010370;28;20436;-74
2023/12/24 03:57:01;;;;;;;0.28;0.28;;;;;;;6.94;87.82;96483.59;5013188;28;20088;-73
2023/12/24 03:59:30;;;;;;;0.25;0.25;;;;;;;6.92;87.92;96491.72;5009599;28;20053;-73
2023/12/24 04:01:57;;;;;;;0.20;0.20;;;;;;;6.95;87.89;96496.66;5012078;28;20049;-74
2023/12/24 04:04:25;;;;;;;0.30;0.30;;;;;;;6.99;87.79;96503.16;5008755;28;20046;-73
2023/12/24 04:06:54;;;;;;;0.30;0.30;;;;;;;7.03;88.03;96500.94;5011114;28;20087;-74
2023/12/24 04:09:22;;;;;;;0.20;0.20;;;;;;;6.99;88.48;96503.16;5013227;28;20052;-74
2023/12/24 04:11:50;;;;;;;0.20;0.20;;;;;;;6.93;89.17;96498.69;5005522;28;20095;-73
2023/12/24 04:14:18;;;;;;;0.20;0.20;;;;;;;6.96;89.09;96481.53;5011572;28;20045;-74
2023/12/24 04:16:45;;;;;;;0.20;0.20;;;;;;;6.89;89.44;96492.13;5008219;28;20041;-73
2023/12/24 04:19:13;;;;;;;0.30;0.30;;;;;;;6.89;89.73;96489.47;5028485;28;20048;-73
2023/12/24 04:21:40;;;;;;;0.30;0.30;;;;;;;6.91;89.35;96482.13;5030675;28;20049;-73
2023/12/24 04:24:09;;;;;;;0.30;0.30;;;;;;;6.94;88.72;96494.19;5009861;28;20053;-74
2023/12/24 04:26:37;;;;;;;0.30;0.30;;;;;;;6.98;88.39;96472.34;5029846;28;20061;-74
2023/12/24 04:29:05;;;;;;;0.30;0.30;;;;;;;7.02;88.64;96477.28;5009029;28;20050;-73
2023/12/24 04:31:38;;;;;;;0.28;0.28;;;;;;;7.07;88.06;96474.81;5011547;28;20412;-75
2023/12/24 04:34:07;;;;;;;0.22;0.22;;;;;;;7.06;88.17;96479.31;5021580;28;20080;-73
2023/12/24 04:36:35;;;;;;;0.40;0.40;;;;;;;7.11;87.83;96463.63;5010129;28;20512;-73
2023/12/24 04:39:03;;;;;;;0.22;0.22;;;;;;;7.13;87.75;96464.25;5013235;28;20128;-73
2023/12/24 04:41:33;;;;;;;0.20;0.20;;;;;;;7.15;87.70;96462.22;5009618;28;20065;-73
2023/12/24 04:44:04;;;;;;;0.20;0.20;;;;;;;7.16;87.30;96452.41;5013376;28;20054;-73
2023/12/24 04:46:31;;;;;;;0.20;0.20;;;;;;;7.15;87.58;96467.53;5008881;28;20077;-73
2023/12/24 04:48:59;;;;;;;0.30;0.30;;;;;;;7.18;87.71;96455.66;5028620;28;20107;-74
2023/12/24 04:51:27;;;;;;;0.20;0.20;;;;;;;7.17;87.17;96448.72;5008183;28;20049;-73
2023/12/24 04:53:54;;;;;;;0.22;0.22;;;;;;;7.17;87.17;96449.53;5009533;28;20046;-73
2023/12/24 04:56:22;;;;;;;0.25;0.25;;;;;;;7.19;87.28;96457.31;5007211;28;20048;-73
2023/12/24 04:58:53;;;;;;;0.40;0.40;;;;;;;7.27;86.88;96462.41;5008093;28;20053;-74
2023/12/24 05:01:24;;;;;;;0.20;0.20;;;;;;;7.28;86.85;96450.78;5013151;28;20045;-74
2023/12/24 05:03:51;;;;;;;0.30;0.30;;;;;;;7.24;87.26;96449.56;5024183;28;20120;-73
2023/12/24 05:06:21;;;;;;;0.30;0.30;;;;;;;7.26;86.98;96448.34;5013566;28;20053;-73
2023/12/24 05:08:48;;;;;;;0.30;0.30;;;;;;;7.33;86.50;96453.66;5007848;28;20389;-73
2023/12/24 05:11:16;;;;;;;0.30;0.30;;;;;;;7.31;86.51;96461.00;5026587;28;20053;-72
2023/12/24 05:13:43;;;;;;;0.30;0.30;;;;;;;7.29;86.61;96465.69;5022382;28;20091;-72
2023/12/24 05:16:12;;;;;;;0.22;0.22;;;;;;;7.28;87.24;96464.03;5008442;28;20144;-72
2023/12/24 05:18:40;;;;;;;0.17;0.17;;;;;;;7.25;87.12;96473.25;5007611;28;20404;-72
2023/12/24 05:21:08;;;;;;;0.22;0.22;;;;;;;7.26;87.09;96466.94;5012784;28;20099;-73
2023/12/24 05:23:35;;;;;;;0.22;0.22;;;;;;;7.30;87.08;96473.44;5030729;28;20320;-72
2023/12/24 05:26:03;;;;;;;0.30;0.30;;;;;;;7.37;86.17;96465.53;5005277;28;20465;-72
2023/12/24 05:28:31;;;;;;;0.20;0.20;;;;;;;7.33;86.72;96465.09;5026189;28;20045;-72
2023/12/24 05:30:59;;;;;;;0.22;0.22;;;;;;;7.34;86.23;96456.13;5028816;28;20049;-72
2023/12/24 05:33:28;;;;;;;0.28;0.28;;;;;;;7.37;86.35;96484.09;5025356;28;20060;-72
2023/12/24 05:35:56;;;;;;;0.20;0.20;;;;;;;7.33;86.57;96467.75;5025125;28;20393;-72
2023/12/24 05:38:24;;;;;;;0.30;0.30;;;;;;;7.35;86.40;96478.16;5025383;28;20042;-72
2023/12/24 05:40:52;;;;;;;0.10;0.10;;;;;;;7.38;86.22;96494.50;5027120;28;20099;-73
2023/12/24 05:43:19;;;;;;;0.40;0.40;;;;;;;7.37;86.10;96500.03;5029431;28;20041;-72
2023/12/24 05:45:47;;;;;;;0.40;0.40;;;;;;;7.34;86.48;96503.06;5026223;28;20052;-72
2023/12/24 05:48:15;;;;;;;0.15;0.15;;;;;;;7.38;86.52;96501.63;5029158;28;20076;-72
2023/12/24 05:50:43;;;;;;;0.35;0.35;;;;;;;7.38;86.53;96499.78;5028246;28;20053;-72
2023/12/24 05:53:11;;;;;;;0.40;0.40;;;;;;;7.41;85.98;96506.53;5031532;28;20120;-72
2023/12/24 05:55:39;;;;;;;0.10;0.10;;;;;;;7.40;86.25;96501.44;5034039;28;20054;-72
2023/12/24 05:58:06;;;;;;;0.10;0.10;;;;;;;7.40;86.07;96504.91;5031181;28;20059;-72
2023/12/24 06:00:35;;;;;;;0.30;0.30;;;;;;;7.40;86.18;96504.91;5026374;28;20299;-72
2023/12/24 06:03:04;;;;;;;0.30;0.30;;;;;;;7.41;85.89;96514.50;5026376;28;20440;-72
2023/12/24 06:05:32;;;;;;;0.20;0.20;;;;;;;7.45;85.98;96514.94;5025080;28;20065;-72
2023/12/24 06:08:00;;;;;;;0.10;0.10;;;;;;;7.42;85.72;96505.53;5028676;28;20057;-71
2023/12/24 06:10:28;;;;;;;0.20;0.20;;;;;;;7.45;85.78;96505.13;5026983;28;20041;-71
2023/12/24 06:12:56;;;;;;;0.30;0.30;;;;;;;7.41;86.16;96519.81;5032684;28;20045;-72
2023/12/24 06:15:23;;;;;;;0.20;0.20;;;;;;;7.38;85.92;96517.56;5033975;28;20489;-72
2023/12/24 06:17:51;;;;;;;0.15;0.15;;;;;;;7.37;86.08;96527.34;5027383;28;20124;-72
2023/12/24 06:20:19;;;;;;;0.22;0.22;;;;;;;7.39;85.56;96519.19;5033289;28;20547;-72
2023/12/24 06:22:47;;;;;;;0.38;0.38;;;;;;;7.35;86.03;96517.97;5032528;28;20060;-72
2023/12/24 06:25:18;;;;;;;0.30;0.30;;;;;;;7.35;85.51;96502.06;5031181;28;20045;-72
2023/12/24 06:27:45;;;;;;;0.22;0.22;;;;;;;7.40;85.83;96531.44;5032577;28;20049;-72
2023/12/24 06:30:13;;;;;;;0.28;0.28;;;;;;;7.40;84.91;96520.84;5030914;28;20037;-74
2023/12/24 06:32:43;;;;;;;0.10;0.10;;;;;;;7.39;85.32;96519.19;5033656;28;20475;-72
2023/12/24 06:35:11;;;;;;;0.30;0.30;;;;;;;7.41;84.65;96516.34;5027995;28;20822;-72
2023/12/24 06:37:39;;;;;;;0.30;0.30;;;;;;;7.40;84.04;96520.84;5033809;28;20049;-75
2023/12/24 06:40:08;;;;;;;0.20;0.20;;;;;;;7.41;84.29;96529.63;5024705;28;20061;-74
2023/12/24 06:42:37;;;;;;;0.30;0.30;;;;;;;7.41;83.89;96534.94;5032604;28;20045;-72
2023/12/24 06:45:05;;;;;;;0.28;0.28;;;;;;;7.46;83.63;96548.44;5029716;28;20051;-72
2023/12/24 06:47:33;;;;;;;0.22;0.22;;;;;;;7.43;83.34;96544.34;5031714;28;20049;-72
2023/12/24 06:50:01;;;;;;;0.30;0.30;;;;;;;7.50;82.73;96547.00;5030142;28;20100;-72
2023/12/24 06:52:28;;;;;;;0.30;0.30;;;;;;;7.48;82.83;96539.22;5031417;28;20041;-72
2023/12/24 06:54:56;;;;;;;0.15;0.15;;;;;;;7.48;82.52;96511.84;5030666;28;20096;-73
2023/12/24 06:57:23;;;;;;;0.25;0.25;;;;;;;7.52;82.22;96526.38;5021782;28;20052;-72
2023/12/24 06:59:53;;;;;;;0.20;0.20;;;;;;;7.48;82.12;96525.94;5031835;28;20534;-72
2023/12/24 07:02:21;;;;;;;0.30;0.30;;;;;;;7.49;81.80;96527.59;5024986;28;20124;-72
2023/12/24 07:04:49;;;;;;;0.20;0.20;;;;;;;7.47;82.00;96534.97;5025152;28;20041;-72
2023/12/24 07:07:16;;;;;;;0.32;0.32;;;;;;;7.48;82.24;96549.03;5025794;28;20046;-72
2023/12/24 07:09:44;;;;;;;0.22;0.22;;;;;;;7.47;82.24;96519.03;5031949;28;20049;-72
2023/12/24 07:12:12;;;;;;;0.20;0.20;;;;;;;7.49;81.85;96534.72;5029066;28;20073;-74
2023/12/24 07:14:39;;;;;;;0.10;0.10;;;;;;;7.46;82.26;96543.94;5031505;28;20052;-72
2023/12/24 07:17:08;;;;;;;0.20;0.20;;;;;;;7.48;81.72;96531.25;5021231;28;20076;-72
2023/12/24 07:19:36;;;;;;;0.20;0.20;;;;;;;7.49;82.05;96540.03;5028648;28;20444;-73
2023/12/24 07:22:04;;;;;;;0.10;0.10;;;;;;;7.48;82.10;96535.75;5026756;28;20641;-72
2023/12/24 07:24:32;;;;;;;0.25;0.25;;;;;;;7.47;82.16;96534.13;5030357;28;20052;-71
2023/12/24 07:26:59;;;;;;;0.35;0.35;;;;;;;7.51;81.77;96528.22;5032169;28;20046;-72
2023/12/24 07:29:27;;;;;;;0.15;0.15;;;;;;;7.58;81.72;96534.34;5033859;28;20381;-72
2023/12/24 07:31:54;;;;;;;0.38;0.38;;;;;;;7.53;82.08;96528.81;5013217;28;20107;-72
2023/12/24 07:34:23;;;;;;;0.30;0.30;;;;;;;7.54;81.84;96533.13;5027780;28;20128;-73
2023/12/24 07:36:52;;;;;;;0.20;0.20;;;;;;;7.60;81.11;96504.94;5029943;28;20531;-72
2023/12/24 07:39:19;;;;;;;0.20;0.20;;;;;;;7.57;81.52;96537.22;5026829;28;20037;-72
2023/12/24 07:41:47;;;;;;;0.20;0.20;;;;;;;7.54;81.78;96537.63;5021048;28;20420;-73
2023/12/24 07:44:14;;;;;;;0.20;0.20;;;;;;;7.55;81.86;96539.25;5014160;28;20140;-73
2023/12/24 07:46:43;;;;;;;0.30;0.30;;;;;;;7.53;81.77;96520.03;5028369;28;20056;-72
2023/12/24 07:49:10;;;;;;;0.30;0.30;;;;;;;7.54;82.03;96529.66;5031300;28;20049;-73
2023/12/24 07:51:39;;;;;;;0.30;0.30;;;;;;;7.54;82.43;96521.69;5027583;28;20041;-72
2023/12/24 07:54:06;;;;;;;0.30;0.30;;;;;;;7.56;82.50;96512.50;5031810;28;20053;-74
2023/12/24 07:56:34;;;;;;;0.20;0.20;;;;;;;7.52;83.26;96531.69;5026821;28;20045;-72
2023/12/24 07:59:02;;;;;;;0.40;0.40;;;;;;;7.45;84.26;96518.41;5020373;28;20057;-72
2023/12/24 08:01:29;;;;;;;0.20;0.20;;;;;;;7.39;85.10;96532.47;5025364;28;20038;-72
2023/12/24 08:03:57;;;;;;;0.20;0.20;;;;;;;7.37;84.98;96523.91;5028915;28;20099;-73
2023/12/24 08:06:24;;;;;;;0.13;0.13;;;;;;;7.35;85.21;96518.78;5032478;28;20128;-71
2023/12/24 08:08:57;;;;;;;0.30;0.30;;;;;;;7.28;85.74;96517.13;5024773;28;20107;-72
2023/12/24 08:11:25;;;;;;;0.20;0.20;;;;;;;7.27;86.66;96523.44;5024472;28;20121;-71
2023/12/24 08:13:54;;;;;;;0.38;0.38;;;;;;;7.24;86.91;96508.75;5030124;28;20583;-72
2023/12/24 08:16:21;;;;;;;0.13;0.13;;;;;;;7.21;87.26;96508.34;5028229;28;20096;-74
2023/12/24 08:18:49;;;;;;;0.30;0.30;;;;;;;7.19;87.63;96513.03;5029513;28;20047;-73
2023/12/24 08:21:17;;;;;;;0.20;0.20;;;;;;;7.19;87.24;96518.34;5027442;28;20096;-74
2023/12/24 08:23:44;;;;;;;0.32;0.32;;;;;;;7.18;87.16;96525.47;5028355;28;20037;-74
2023/12/24 08:26:13;;;;;;;0.30;0.30;;;;;;;7.19;87.16;96511.19;5031371;28;20543;-74
2023/12/24 08:28:41;;;;;;;0.20;0.20;;;;;;;7.22;87.06;96533.84;5028258;28;20037;-75
2023/12/24 08:31:10;;;;;;;0.30;0.30;;;;;;;7.27;86.41;96524.25;5031548;28;20233;-73
2023/12/24 08:33:38;;;;;;;0.20;0.20;;;;;;;7.29;85.80;96527.53;5027727;28;20122;-74
2023/12/24 08:36:07;;;;;;;0.20;0.20;;;;;;;7.32;85.98;96534.28;5029604;28;20084;-74
2023/12/24 08:38:34;;;;;;;0.20;0.20;;;;;;;7.34;85.64;96541.03;5026062;28;20042;-74
2023/12/24 08:41:03;;;;;;;0.10;0.10;;;;;;;7.31;86.37;96535.31;5028310;28;20485;-74
2023/12/24 08:43:32;;;;;;;0.30;0.30;;;;;;;7.30;86.17;96541.63;5025043;28;20130;-73
2023/12/24 08:46:03;;;;;;;0.32;0.32;;;;;;;7.31;86.62;96540.63;5027575;28;20041;-74
2023/12/24 08:48:30;;;;;;;0.30;0.30;;;;;;;7.31;87.01;96557.34;5030228;28;20037;-74
2023/12/24 08:51:00;;;;;;;0.30;0.30;;;;;;;7.26;87.81;96545.72;5022714;28;20037;-74
2023/12/24 08:53:28;;;;;;;0.28;0.28;;;;;;;7.29;87.85;96548.78;5029243;28;20049;-73
2023/12/24 08:55:56;;;;;;;0.20;0.20;;;;;;;7.22;88.15;96532.03;5022771;28;20420;-74
2023/12/24 08:58:23;;;;;;;0.20;0.20;;;;;;;7.18;88.80;96533.44;5028519;28;20507;-74
2023/12/24 09:00:53;;;;;;;0.20;0.20;;;;;;;7.17;89.91;96520.34;5030365;28;20072;-73
2023/12/24 09:03:21;;;;;;;0.20;0.20;;;;;;;7.18;89.30;96528.13;5027621;28;20052;-74
2023/12/24 09:05:48;;;;;;;0.20;0.20;;;;;;;7.25;88.38;96525.50;5030236;28;20041;-74
2023/12/24 09:08:16;;;;;;;0.10;0.10;;;;;;;7.27;88.47;96518.13;5030950;28;20410;-74
2023/12/24 09:10:44;;;;;;;0.30;0.30;;;;;;;7.32;88.50;96531.66;5030568;28;20034;-75
2023/12/24 09:13:12;;;;;;;0.30;0.30;;;;;;;7.26;89.00;96543.06;5027008;28;20049;-73
2023/12/24 09:15:39;;;;;;;0.22;0.22;;;;;;;7.29;88.42;96537.34;5031063;28;20045;-74
2023/12/24 09:18:08;;;;;;;0.17;0.17;;;;;;;7.29;88.31;96538.16;5024736;28;20124;-73
2023/12/24 09:20:36;;;;;;;0.20;0.20;;;;;;;7.30;88.25;96531.03;5023543;28;20049;-74
2023/12/24 09:23:04;;;;;;;0.22;0.22;;;;;;;7.35;88.42;96520.63;5030455;28;20095;-74
2023/12/24 09:25:31;;;;;;;0.20;0.20;;;;;;;7.34;88.72;96522.47;5034814;28;20416;-74
2023/12/24 09:27:59;;;;;;;0.10;0.10;;;;;;;7.36;88.14;96516.97;5032629;28;20045;-74
2023/12/24 09:30:27;;;;;;;0.35;0.35;;;;;;;7.40;88.21;96504.09;5035175;28;20045;-74
2023/12/24 09:32:54;;;;;;;0.30;0.30;;;;;;;7.40;87.85;96488.16;5038039;28;20097;-74
2023/12/24 09:35:24;;;;;;;0.22;0.22;;;;;;;7.44;87.16;96492.88;5024601;28;20065;-73
2023/12/24 09:37:51;;;;;;;0.30;0.30;;;;;;;7.44;87.96;96502.69;5033636;28;20136;-75
2023/12/24 09:40:19;;;;;;;0.20;0.20;;;;;;;7.47;86.93;96491.66;5023319;28;20038;-74
2023/12/24 09:42:46;;;;;;;0.20;0.20;;;;;;;7.50;87.00;96501.84;5017103;28;20092;-74
2023/12/24 09:45:14;;;;;;;0.13;0.13;;;;;;;7.50;86.54;96502.69;5031548;28;20416;-73
2023/12/24 09:47:42;;;;;;;0.30;0.30;;;;;;;7.54;86.89;96497.78;5033575;28;20049;-74
2023/12/24 09:50:10;;;;;;;0.20;0.20;;;;;;;7.65;86.12;96508.63;5024311;28;20061;-77
2023/12/24 09:52:40;;;;;;;0.20;0.20;;;;;;;7.64;86.25;96501.69;5032339;28;20088;-74
2023/12/24 09:55:08;;;;;;;0.30;0.30;;;;;;;7.67;85.31;96497.81;5030857;28;20071;-73
2023/12/24 09:57:36;;;;;;;0.30;0.30;;;;;;;7.70;85.64;96489.41;5030278;28;20100;-73
2023/12/24 10:00:08;;;;;;;0.20;0.20;;;;;;;7.74;85.09;96488.00;5034145;28;20045;-74
2023/12/24 10:02:36;;;;;;;0.25;0.25;;;;;;;7.79;85.46;96476.78;5031058;28;20065;-74
2023/12/24 10:05:04;;;;;;;0.25;0.25;;;;;;;7.80;85.21;96481.84;5033752;28;20053;-74
2023/12/24 10:07:37;;;;;;;0.20;0.20;;;;;;;7.82;84.41;96479.81;5035036;28;20045;-73
2023/12/24 10:10:08;;;;;;;0.20;0.20;;;;;;;7.84;84.21;96472.47;5023022;28;20056;-73
2023/12/24 10:12:36;;;;;;;0.20;0.20;;;;;;;7.87;84.28;96485.34;5029761;28;20412;-73
2023/12/24 10:15:04;;;;;;;0.38;0.38;;;;;;;7.90;84.03;96471.63;5033537;28;20049;-75
2023/12/24 10:17:33;;;;;;;0.28;0.28;;;;;;;7.92;84.29;96484.72;5027853;28;20053;-74
2023/12/24 10:20:03;;;;;;;0.25;0.25;;;;;;;7.95;83.71;96465.72;5032225;28;20072;-73
2023/12/24 10:22:31;;;;;;;0.20;0.20;;;;;;;8.07;83.93;96459.56;5022796;28;20042;-74
2023/12/24 10:25:02;;;;;;;0.20;0.20;;;;;;;8.03;83.34;96462.84;5031920;28;20408;-74
2023/12/24 10:27:31;;;;;;;0.20;0.20;;;;;;;8.02;83.60;96462.03;5034073;28;20037;-74
2023/12/24 10:30:09;;;;;;;0.30;0.30;;;;;;;8.02;83.41;96458.53;5032860;28;20061;-74
2023/12/24 10:32:37;;;;;;;0.30;0.30;;;;;;;8.07;82.80;96461.41;5027548;28;20386;-73
2023/12/24 10:35:06;;;;;;;0.17;0.17;;;;;;;8.09;82.74;96454.06;5027533;28;20487;-74
2023/12/24 10:37:34;;;;;;;0.20;0.20;;;;;;;8.14;82.80;96459.56;5026399;28;20038;-75
2023/12/24 10:40:06;;;;;;;0.20;0.20;;;;;;;8.10;82.87;96455.66;5026731;28;20409;-73
2023/12/24 10:42:35;;;;;;;0.45;0.45;;;;;;;8.15;82.45;96466.50;5028409;28;20037;-73
2023/12/24 10:45:04;;;;;;;0.28;0.28;;;;;;;8.18;81.99;96455.47;5025393;28;20501;-74
2023/12/24 10:47:32;;;;;;;0.20;0.20;;;;;;;8.19;82.19;96456.28;5032513;28;20045;-73
2023/12/24 10:50:00;;;;;;;0.15;0.15;;;;;;;8.17;81.83;96451.19;5025519;28;20478;-73
2023/12/24 10:52:27;;;;;;;0.32;0.32;;;;;;;8.18;81.97;96444.84;5035473;28;20041;-74
2023/12/24 10:54:55;;;;;;;0.13;0.13;;;;;;;8.20;81.88;96452.59;5027631;28;20054;-74
2023/12/24 10:57:30;;;;;;;0.30;0.30;;;;;;;8.22;81.43;96426.63;5025446;28;20046;-73
2023/12/24 11:00:09;;;;;;;0.30;0.30;;;;;;;8.21;81.80;96443.56;5033247;28;20045;-73
2023/12/24 11:02:38;;;;;;;0.22;0.22;;;;;;;8.23;81.79;96434.38;5033812;28;20037;-74
2023/12/24 11:05:06;;;;;;;0.30;0.30;;;;;;;8.26;82.08;96433.16;5024793;28;20405;-73
2023/12/24 11:07:50;;;;;;;0.20;0.20;;;;;;;8.28;82.04;96444.41;5021604;28;20046;-74
2023/12/24 11:10:40;;;;;;;0.25;0.25;;;;;;;8.26;81.67;96425.19;5025948;28;20048;-74
2023/12/24 11:13:12;;;;;;;0.20;0.20;;;;;;;8.27;81.66;96418.84;5029994;28;20168;-74
2023/12/24 11:15:43;;;;;;;0.28;0.28;;;;;;;8.28;81.50;96429.28;5026299;28;20125;-73
2023/12/24 11:18:10;;;;;;;0.20;0.20;;;;;;;8.25;81.62;96431.53;5032929;28;20055;-73
2023/12/24 11:20:42;;;;;;;0.20;0.20;;;;;;;8.25;81.76;96427.03;5030488;28;20077;-74
2023/12/24 11:23:14;;;;;;;0.20;0.20;;;;;;;8.27;81.64;96417.00;5031293;28;20072;-74
2023/12/24 11:25:43;;;;;;;0.20;0.20;;;;;;;8.26;81.83;96419.88;5033155;28;20045;-74
2023/12/24 11:28:12;;;;;;;0.20;0.20;;;;;;;8.23;82.13;96418.44;5024094;28;20048;-74
2023/12/24 11:31:06;;;;;;;0.20;0.20;;;;;;;8.29;81.70;96440.72;5032403;28;20116;-73
2023/12/24 11:33:45;;;;;;;0.30;0.30;;;;;;;8.23;81.92;96414.97;5025123;28;20088;-74
2023/12/24 11:36:14;;;;;;;0.30;0.30;;;;;;;8.24;82.33;96425.38;5023078;28;20136;-74
2023/12/24 11:38:44;;;;;;;0.30;0.30;;;;;;;8.24;82.08;96445.84;5024117;28;20044;-73
2023/12/24 11:41:18;;;;;;;0.30;0.30;;;;;;;8.23;82.28;96429.06;5020757;28;20045;-73
2023/12/24 11:43:53;;;;;;;0.30;0.30;;;;;;;8.25;82.68;96426.19;5028895;28;20037;-74
2023/12/24 11:46:23;;;;;;;0.20;0.20;;;;;;;8.24;82.58;96398.00;5028908;28;20396;-73
2023/12/24 11:48:50;;;;;;;0.22;0.22;;;;;;;8.29;82.50;96414.13;5013925;28;20079;-73